Walkers Mill, Texas
Current Conditions -  °F | °C
As of 9:55 AM on Sunday 23 Nov 2014 (Local Time) from KASL Reporting Station
Overcast Overcast  
Wind Chill: 62°   Ceiling: 800
Heat Index: 62°   Visibility: 10mi
Dew Point: 59°   Wind: 10mph
Humidity: 91%   Direction: 230°SW
Pressure: 29.57"   Gusts: 16mph
Location:  32.4986°N, 94.513°W
Report Text: KASL 231555Z AUTO 23009G14KT 10SM BKN008 BKN011 OVC023 17/15 A2957 RMK AO1 T01660152
Loading
Personal Weather Stations






























Interactive Weather Map New forecast layout! Learn more

10-Day Weather Forecast

Advertisements
Track Severe Weather on mobile